createdAt,value
2023-03-13T00:03:17.383Z,94748.00
2023-03-13T00:07:17.530Z,94744.00
2023-03-13T00:11:17.609Z,94742.00
2023-03-13T00:15:17.800Z,94736.00
2023-03-13T00:19:17.941Z,94742.00
2023-03-13T00:23:18.079Z,94734.00
2023-03-13T00:27:18.168Z,94736.00
2023-03-13T00:31:18.451Z,94732.00
2023-03-13T00:35:18.367Z,94734.00
2023-03-13T00:39:18.477Z,94727.00
2023-03-13T00:43:18.550Z,94719.00
2023-03-13T00:47:18.680Z,94707.00
2023-03-13T00:51:18.818Z,94703.00
2023-03-13T00:55:18.974Z,94695.00
2023-03-13T00:59:19.199Z,94689.00
2023-03-13T01:03:19.387Z,94682.00
2023-03-13T01:07:19.422Z,94672.00
2023-03-13T01:11:19.508Z,94668.00
2023-03-13T01:15:19.751Z,94660.00
2023-03-13T01:19:19.798Z,94650.00
2023-03-13T01:23:19.900Z,94652.00
2023-03-13T01:27:20.057Z,94642.00
2023-03-13T01:31:20.313Z,94646.00
2023-03-13T01:35:20.473Z,94638.00
2023-03-13T01:39:20.548Z,94635.00
2023-03-13T01:43:27.455Z,94635.00
2023-03-13T01:47:21.587Z,94631.00
2023-03-13T01:51:20.598Z,94621.00
2023-03-13T01:55:20.585Z,94633.00
2023-03-13T01:59:20.662Z,94633.00
2023-03-13T02:03:20.831Z,94631.00
2023-03-13T02:07:20.902Z,94617.00
2023-03-13T02:11:21.017Z,94619.00
2023-03-13T02:15:21.117Z,94621.00
2023-03-13T02:19:21.203Z,94609.00
2023-03-13T02:23:21.269Z,94613.00
2023-03-13T02:27:21.486Z,94599.00
2023-03-13T02:31:21.693Z,94599.00
2023-03-13T02:35:21.720Z,94607.00
2023-03-13T02:39:21.872Z,94591.00
2023-03-13T02:43:21.995Z,94591.00
2023-03-13T02:47:22.116Z,94591.00
2023-03-13T02:51:22.282Z,94585.00
2023-03-13T02:55:22.456Z,94582.00
2023-03-13T02:59:22.537Z,94580.00
2023-03-13T03:03:22.586Z,94578.00
2023-03-13T03:07:22.754Z,94578.00
2023-03-13T03:11:22.839Z,94578.00
2023-03-13T03:15:23.017Z,94582.00
2023-03-13T03:19:23.138Z,94582.00
2023-03-13T03:23:23.259Z,94578.00
2023-03-13T03:27:23.414Z,94572.00
2023-03-13T03:31:23.520Z,94580.00
2023-03-13T03:35:23.674Z,94578.00
2023-03-13T03:39:23.803Z,94564.00
2023-03-13T03:43:23.863Z,94568.00
2023-03-13T03:47:24.077Z,94568.00
2023-03-13T03:51:24.109Z,94564.00
2023-03-13T03:55:24.192Z,94564.00
2023-03-13T03:59:24.361Z,94564.00
2023-03-13T04:03:24.532Z,94560.00
2023-03-13T04:07:24.586Z,94568.00
2023-03-13T04:11:24.781Z,94554.00
2023-03-13T04:15:24.915Z,94554.00
2023-03-13T04:19:25.039Z,94548.00
2023-03-13T04:23:25.160Z,94546.00
2023-03-13T04:27:25.289Z,94546.00
2023-03-13T04:31:25.417Z,94544.00
2023-03-13T04:35:25.598Z,94538.00
2023-03-13T04:39:25.662Z,94535.00
2023-03-13T04:43:25.760Z,94537.00
2023-03-13T04:47:25.890Z,94529.00
2023-03-13T04:51:26.046Z,94533.00
2023-03-13T04:55:26.204Z,94533.00
2023-03-13T04:59:26.351Z,94523.00
2023-03-13T05:03:26.486Z,94525.00
2023-03-13T05:07:26.627Z,94525.00
2023-03-13T05:11:26.689Z,94527.00
2023-03-13T05:15:26.837Z,94529.00
2023-03-13T05:19:26.966Z,94521.00
2023-03-13T05:23:27.092Z,94511.00
2023-03-13T05:27:27.153Z,94511.00
2023-03-13T05:31:27.408Z,94521.00
2023-03-13T05:35:27.516Z,94519.00
2023-03-13T05:39:27.499Z,94513.00
2023-03-13T05:43:27.583Z,94505.00
2023-03-13T05:47:27.677Z,94517.00
2023-03-13T05:51:27.845Z,94511.00
2023-03-13T05:55:28.015Z,94511.00
2023-03-13T05:59:28.140Z,94513.00
2023-03-13T06:03:28.388Z,94507.00
2023-03-13T06:07:28.403Z,94499.00
2023-03-13T06:11:28.497Z,94493.00
2023-03-13T06:15:28.647Z,94489.00
2023-03-13T06:19:28.743Z,94493.00
2023-03-13T06:23:28.893Z,94495.00
2023-03-13T06:27:28.974Z,94493.00
2023-03-13T06:31:29.245Z,94487.00
2023-03-13T06:35:29.821Z,94493.00
2023-03-13T06:39:29.739Z,94474.00
2023-03-13T06:43:29.799Z,94476.00
2023-03-13T06:47:29.580Z,94474.00
2023-03-13T06:51:29.730Z,94474.00
2023-03-13T06:55:29.925Z,94474.00
2023-03-13T06:59:30.241Z,94470.00
2023-03-13T07:03:30.371Z,94470.00
2023-03-13T07:07:32.204Z,94478.00
2023-03-13T07:11:30.546Z,94474.00
2023-03-13T07:15:30.655Z,94468.00
2023-03-13T07:19:30.702Z,94474.00
2023-03-13T07:23:30.834Z,94480.00
2023-03-13T07:27:31.248Z,94476.00
2023-03-13T07:31:31.151Z,94474.00
2023-03-13T07:35:31.232Z,94466.00
2023-03-13T07:39:31.367Z,94466.00
2023-03-13T07:43:31.792Z,94466.00
2023-03-13T07:47:31.784Z,94466.00
2023-03-13T07:51:42.898Z,94468.00
2023-03-13T07:55:32.793Z,94468.00
2023-03-13T07:59:31.970Z,94470.00
2023-03-13T08:03:32.179Z,94468.00
2023-03-13T08:07:32.213Z,94462.00
2023-03-13T08:11:32.415Z,94466.00
2023-03-13T08:15:32.766Z,94462.00
2023-03-13T08:19:32.766Z,94472.00
2023-03-13T08:23:32.653Z,94444.00
2023-03-13T08:27:32.779Z,94442.00
2023-03-13T08:31:32.833Z,94421.00
2023-03-13T08:35:33.322Z,94415.00
2023-03-13T08:39:33.260Z,94425.00
2023-03-13T08:43:33.296Z,94411.00
2023-03-13T08:47:33.423Z,94411.00
2023-03-13T08:51:33.755Z,94407.00
2023-03-13T08:55:33.597Z,94403.00
2023-03-13T08:59:33.727Z,94411.00
2023-03-13T09:03:33.992Z,94393.00
2023-03-13T09:07:33.994Z,94405.00
2023-03-13T09:11:34.151Z,94403.00
2023-03-13T09:15:34.404Z,94401.00
2023-03-13T09:19:34.413Z,94389.00
2023-03-13T09:23:34.529Z,94389.00
2023-03-13T09:27:34.798Z,94403.00
2023-03-13T09:31:34.817Z,94395.00
2023-03-13T09:35:34.985Z,94387.00
2023-03-13T09:39:35.045Z,94387.00
2023-03-13T09:43:35.207Z,94383.00
2023-03-13T09:47:35.347Z,94378.00
2023-03-13T09:51:35.794Z,94381.00
2023-03-13T09:55:35.578Z,94354.00
2023-03-13T09:59:35.694Z,94339.00
2023-03-13T10:03:36.304Z,94333.00
2023-03-13T10:07:35.908Z,94331.00
2023-03-13T10:11:36.023Z,94313.00
2023-03-13T10:15:36.126Z,94301.00
2023-03-13T10:19:36.287Z,94289.00
2023-03-13T10:23:36.352Z,94284.00
2023-03-13T10:27:36.461Z,94280.00
2023-03-13T10:31:36.723Z,94282.00
2023-03-13T10:35:36.783Z,94270.00
2023-03-13T10:39:36.834Z,94260.00
2023-03-13T10:43:37.007Z,94238.00
2023-03-13T10:47:37.306Z,94234.00
2023-03-13T10:51:37.338Z,94219.00
2023-03-13T10:55:37.375Z,94205.00
2023-03-13T10:59:37.474Z,94193.00
2023-03-13T11:03:37.586Z,94193.00
2023-03-13T11:07:37.678Z,94189.00
2023-03-13T11:11:37.798Z,94191.00
2023-03-13T11:15:37.873Z,94178.00
2023-03-13T11:19:38.236Z,94160.00
2023-03-13T11:23:38.107Z,94156.00
2023-03-13T11:27:38.413Z,94139.00
2023-03-13T11:31:38.941Z,94140.00
2023-03-13T11:35:38.444Z,94121.00
2023-03-13T11:39:38.569Z,94090.00
2023-03-13T11:43:40.892Z,94101.00
2023-03-13T11:47:38.624Z,94031.00
2023-03-13T11:51:38.820Z,94050.00
2023-03-13T11:55:38.487Z,94040.00
2023-03-13T11:59:38.487Z,94035.00
2023-03-13T12:03:38.526Z,94027.00
2023-03-13T12:07:38.450Z,94015.00
2023-03-13T12:11:38.354Z,94011.00
2023-03-13T12:15:38.343Z,93976.00
2023-03-13T12:19:38.309Z,93988.00
2023-03-13T12:23:38.277Z,93966.00
2023-03-13T12:27:38.477Z,93939.00
2023-03-13T12:31:38.230Z,93931.00
2023-03-13T12:35:38.330Z,93915.00
2023-03-13T12:39:38.428Z,93909.00
2023-03-13T12:43:38.614Z,93895.00
2023-03-13T12:47:38.697Z,93890.00
2023-03-13T12:51:38.816Z,93878.00
2023-03-13T12:55:38.950Z,93872.00
2023-03-13T12:59:39.122Z,93846.00
2023-03-13T13:03:39.262Z,93850.00
2023-03-13T13:07:39.347Z,93815.00
2023-03-13T13:11:39.549Z,93811.00
2023-03-13T13:15:39.660Z,93809.00
2023-03-13T13:19:39.693Z,93796.00
2023-03-13T13:23:39.837Z,93799.00
2023-03-13T13:27:39.997Z,93809.00
2023-03-13T13:31:40.206Z,93807.00
2023-03-13T13:35:40.264Z,93796.00
2023-03-13T13:39:40.313Z,93803.00
2023-03-13T13:43:40.449Z,93799.00
2023-03-13T13:47:40.545Z,93811.00
2023-03-13T13:51:40.762Z,93782.00
2023-03-13T13:55:40.857Z,93794.00
2023-03-13T13:59:41.000Z,93792.00
2023-03-13T14:03:41.080Z,93764.00
2023-03-13T14:07:41.248Z,93770.00
2023-03-13T14:11:41.325Z,93790.00
2023-03-13T14:15:41.455Z,93739.00
2023-03-13T14:19:41.653Z,93768.00
2023-03-13T14:23:41.686Z,93754.00
2023-03-13T14:27:41.798Z,93752.00
2023-03-13T14:31:41.971Z,93744.00
2023-03-13T14:35:42.421Z,93766.00
2023-03-13T14:39:42.176Z,93701.00
2023-03-13T14:43:42.328Z,93750.00
2023-03-13T14:47:42.871Z,93705.00
2023-03-13T14:51:42.553Z,93725.00
2023-03-13T14:55:42.672Z,93727.00
2023-03-13T14:59:42.774Z,93707.00
2023-03-13T15:03:44.912Z,93721.00
2023-03-13T15:07:43.023Z,93686.00
2023-03-13T15:11:43.119Z,93668.00
2023-03-13T15:15:43.280Z,93672.00
2023-03-13T15:19:43.369Z,93654.00
2023-03-13T15:23:43.511Z,93725.00
2023-03-13T15:27:43.648Z,93650.00
2023-03-13T15:31:43.801Z,93629.00
2023-03-13T15:35:44.064Z,93668.00
2023-03-13T15:39:43.984Z,93660.00
2023-03-13T15:43:44.147Z,93641.00
2023-03-13T15:47:44.301Z,93639.00
2023-03-13T15:51:44.436Z,93649.00
2023-03-13T15:55:44.585Z,93607.00
2023-03-13T15:59:44.698Z,93607.00
2023-03-13T16:03:44.802Z,93629.00
2023-03-13T16:07:44.915Z,93658.00
2023-03-13T16:11:45.038Z,93631.00
2023-03-13T16:15:45.165Z,93635.00
2023-03-13T16:19:45.264Z,93619.00
2023-03-13T16:23:45.411Z,93556.00
2023-03-13T16:27:45.479Z,93676.00
2023-03-13T16:31:45.585Z,93586.00
2023-03-13T16:35:45.700Z,93592.00
2023-03-13T16:39:45.807Z,93607.00
2023-03-13T16:43:45.896Z,93629.00
2023-03-13T16:47:46.057Z,93617.00
2023-03-13T16:51:46.196Z,93631.00
2023-03-13T16:55:46.261Z,93594.00
2023-03-13T16:59:46.380Z,93564.00
2023-03-13T17:03:46.462Z,93584.00
2023-03-13T17:07:46.525Z,93582.00
2023-03-13T17:11:46.655Z,93566.00
2023-03-13T17:15:46.818Z,93576.00
2023-03-13T17:19:46.918Z,93625.00
2023-03-13T17:23:46.987Z,93613.00
2023-03-13T17:27:47.183Z,93627.00
2023-03-13T17:31:47.209Z,93574.00
2023-03-13T17:35:47.454Z,93582.00
2023-03-13T17:39:47.491Z,93584.00
2023-03-13T17:43:47.660Z,93578.00
2023-03-13T17:47:47.744Z,93547.00
2023-03-13T17:51:47.790Z,93582.00
2023-03-13T17:55:47.973Z,93535.00
2023-03-13T17:59:48.077Z,93662.00
2023-03-13T18:03:48.193Z,93517.00
2023-03-13T18:07:48.289Z,93535.00
2023-03-13T18:11:48.355Z,93566.00
2023-03-13T18:15:48.503Z,93645.00
2023-03-13T18:19:48.609Z,93533.00
2023-03-13T18:23:48.733Z,93496.00
2023-03-13T18:27:48.876Z,93527.00
2023-03-13T18:31:49.048Z,93531.00
2023-03-13T18:35:49.267Z,93545.00
2023-03-13T18:39:49.256Z,93525.00
2023-03-13T18:43:49.378Z,93531.00
2023-03-13T18:47:49.507Z,93490.00
2023-03-13T18:51:49.594Z,93531.00
2023-03-13T18:55:49.709Z,93523.00
2023-03-13T18:59:49.816Z,93496.00
2023-03-13T19:03:49.870Z,93498.00
2023-03-13T19:07:49.988Z,93498.00
2023-03-13T19:11:50.082Z,93519.00
2023-03-13T19:15:50.224Z,93513.00
2023-03-13T19:19:50.340Z,93515.00
2023-03-13T19:23:50.436Z,93474.00
2023-03-13T19:27:50.639Z,93498.00
2023-03-13T19:31:50.764Z,93521.00
2023-03-13T19:35:50.900Z,93460.00
2023-03-13T19:39:50.919Z,93472.00
2023-03-13T19:43:51.042Z,93498.00
2023-03-13T19:47:51.114Z,93490.00
2023-03-13T19:51:51.238Z,93480.00
2023-03-13T19:55:51.417Z,93458.00
2023-03-13T19:59:51.451Z,93458.00
2023-03-13T20:03:51.576Z,93458.00
2023-03-13T20:07:51.659Z,93445.00
2023-03-13T20:11:51.849Z,93476.00
2023-03-13T20:15:51.868Z,93439.00
2023-03-13T20:19:51.988Z,93462.00
2023-03-13T20:23:52.114Z,93500.00
2023-03-13T20:27:52.234Z,93537.00
2023-03-13T20:31:53.001Z,93511.00
2023-03-13T20:35:52.454Z,93490.00
2023-03-13T20:39:52.509Z,93498.00
2023-03-13T20:43:52.634Z,93496.00
2023-03-13T20:47:52.709Z,93545.00
2023-03-13T20:51:52.948Z,93533.00
2023-03-13T20:55:52.974Z,93523.00
2023-03-13T20:59:53.088Z,93541.00
2023-03-13T21:03:53.196Z,93558.00
2023-03-13T21:07:53.292Z,93531.00
2023-03-13T21:11:53.457Z,93543.00
2023-03-13T21:15:53.601Z,93584.00
2023-03-13T21:19:53.684Z,93549.00
2023-03-13T21:23:53.772Z,93531.00
2023-03-13T21:27:53.857Z,93574.00
2023-03-13T21:31:54.089Z,93562.00
2023-03-13T21:35:54.091Z,93551.00
2023-03-13T21:39:54.216Z,93541.00
2023-03-13T21:43:54.365Z,93558.00
2023-03-13T21:47:54.407Z,93539.00
2023-03-13T21:51:54.541Z,93543.00
2023-03-13T21:55:54.621Z,93507.00
2023-03-13T21:59:54.750Z,93515.00
2023-03-13T22:03:54.866Z,93537.00
2023-03-13T22:07:54.902Z,93562.00
2023-03-13T22:11:54.994Z,93539.00
2023-03-13T22:15:55.113Z,93509.00
2023-03-13T22:19:55.215Z,93527.00
2023-03-13T22:23:55.342Z,93525.00
2023-03-13T22:27:55.471Z,93505.00
2023-03-13T22:31:55.589Z,93531.00
2023-03-13T22:35:55.713Z,93527.00
2023-03-13T22:39:55.744Z,93511.00
2023-03-13T22:43:55.867Z,93517.00
2023-03-13T22:47:55.978Z,93513.00
2023-03-13T22:51:56.095Z,93480.00
2023-03-13T22:55:56.223Z,93502.00
2023-03-13T22:59:56.342Z,93494.00
2023-03-13T23:03:56.417Z,93460.00
2023-03-13T23:07:56.544Z,93468.00
2023-03-13T23:11:56.678Z,93468.00
2023-03-13T23:15:56.805Z,93468.00
2023-03-13T23:19:56.918Z,93448.00
2023-03-13T23:23:57.069Z,93415.00
2023-03-13T23:27:57.237Z,93409.00
2023-03-13T23:31:57.320Z,93411.00
2023-03-13T23:35:57.494Z,93364.00
2023-03-13T23:39:57.573Z,93374.00
2023-03-13T23:43:57.685Z,93366.00
2023-03-13T23:47:57.888Z,93331.00
2023-03-13T23:51:57.837Z,93321.00
2023-03-13T23:55:57.955Z,93300.00
2023-03-13T23:59:58.099Z,93329.00
